ADDS METAR Data INFO
IDs: Format: Raw Decoded Include TAF

Data at: 1945 UTC 18 Feb 2018

KDKK 181853Z AUTO VRB06KT 10SM OVC030 01/M05 A3034 RMK AO2 SLP281 T00111050
KDKK 181753Z AUTO 26009G15KT 10SM OVC032 01/M04 A3035 RMK AO2 SLP287 T00061044 10006 21017 50004
KDKK 181653Z AUTO 26007KT 10SM OVC033 00/M03 A3036 RMK AO2 SLP291 T00001033
KDKK 181553Z AUTO 27008KT 9SM OVC032 M01/M03 A3035 RMK AO2 SLP286 T10061033
KDKK 181453Z AUTO 23006KT 10SM OVC032 M01/M04 A3034 RMK AO2 SLP283 T10061039 51029
KDKK 181353Z AUTO 24009KT 7SM OVC033 M01/M03 A3033 RMK AO2 SLP280 T10111028
KDKK 181253Z AUTO 24009KT 8SM FEW011 OVC038 M01/M03 A3030 RMK AO2 SLP270 T10111033
KDKK 181229Z AUTO 24012KT 8SM SCT020 OVC041 M02/M03 A3030 RMK AO2 T10171033
KDKK 181153Z AUTO 24010KT 8SM FEW007 BKN024 OVC041 M02/M03 A3025 RMK AO2 SLP253 60000 T10171028 11006 21022 51044
KDKK 181130Z AUTO 24011KT 8SM FEW009 BKN026 OVC042 M02/M03 A3025 RMK AO2 PRESRR T10171028
KDKK 181106Z AUTO 24009KT 8SM FEW009 OVC044 M02/M03 A3022 RMK AO2 T10171033
KDKK 181053Z AUTO 23011KT 9SM OVC046 M02/M03 A3021 RMK AO2 SLP238 T10171033
KDKK 181004Z AUTO 24011G18KT 9SM SCT023 BKN037 OVC048 M02/M03 A3017 RMK AO2 T10171028
KDKK 180953Z AUTO 25013G19KT 9SM BKN023 BKN029 OVC035 M01/M03 A3017 RMK AO2 SLP225 T10111028
KDKK 180931Z AUTO 24010G16KT 9SM SCT008 BKN023 OVC032 M02/M03 A3016 RMK AO2 PRESRR T10171028
KDKK 180853Z AUTO 26010G19KT 7SM OVC009 M02/M03 A3012 RMK AO2 CIG 006V011 SLP208 60000 T10171028 53040
KDKK 180753Z AUTO 25010G18KT 7SM OVC009 M01/M03 A3007 RMK AO2 UPB19E21B27E39 CIG 006V013 SLP192 P0000 T10111028
KDKK 180723Z AUTO 25014G21KT 8SM BKN010 BKN022 OVC030 M01/M03 A3006 RMK AO2 UPB19E21 CIG 009V013 P0000 T10111028
KDKK 180653Z AUTO 24009KT 10SM BKN027 OVC065 M01/M03 A3003 RMK AO2 SLP178 T10111033
KDKK 180635Z AUTO 23008KT 10SM BKN028 OVC070 M02/M04 A3002 RMK AO2 T10171039
KDKK 180553Z AUTO 22006KT 10SM SCT031 BKN090 OVC110 M02/M04 A3000 RMK AO2 SLP167 60000 T10221039 11017 21028 53005
KDKK 180453Z AUTO 21004KT 10SM FEW100 M02/M04 A2998 RMK AO2 SLP162 T10221039 410061072
KDKK 180353Z AUTO 18004KT 10SM FEW050 SCT080 OVC100 M03/M04 A2997 RMK AO2 SNE00 SLP158 P0000 T10281039
KDKK 180253Z AUTO 16006KT 6SM -SN BR BKN045 OVC075 M03/M04 A2998 RMK AO2 SLP163 P0000 60000 T10281044 58011
KDKK 180240Z AUTO 16003KT 3SM -SN BR OVC037 M03/M05 A2999 RMK AO2 P0000 T10281050
KDKK 180215Z AUTO 00000KT 2 1/2SM -SN OVC027 M02/M06 A3000 RMK AO2 P0000 T10221056
KDKK 180207Z AUTO 00000KT 3SM -SN OVC027 M02/M06 A3000 RMK AO2 P0000 T10221061
KDKK 180203Z AUTO 00000KT 2 1/2SM -SN OVC031 M02/M06 A3000 RMK AO2 P0000 T10221061
KDKK 180153Z AUTO 00000KT 3SM -SN OVC035 M02/M06 A3001 RMK AO2 SNB17E26B42 SLP170 P0000 T10221061
KDKK 180053Z AUTO 00000KT 10SM SCT032 OVC060 M02/M07 A3002 RMK AO2 SLP174 T10221067
KDKK 172353Z AUTO 31003KT 10SM BKN032 OVC041 M02/M06 A3002 RMK AO2 SLP174 T10171061 11006 21017 55012
KDKK 172253Z AUTO 00000KT 10SM FEW033 BKN100 M01/M07 A3000 RMK AO2 SLP167 T10111067
KDKK 172153Z AUTO 18004KT 10SM FEW038 OVC110 M01/M08 A3003 RMK AO2 SLP178 T10061078
KDKK 172053Z AUTO 22005KT 10SM BKN110 M01/M09 A3005 RMK AO2 SLP187 T10061094 56027
KDKK 171953Z AUTO 20005KT 10SM BKN090 OVC110 M01/M10 A3007 RMK AO2 SLP191 T10111100
KDKK 171853Z AUTO 16007KT 10SM CLR M01/M09 A3009 RMK AO2 SLP197 T10111094
KDKK 171753Z AUTO 18005KT 10SM CLR M02/M10 A3014 RMK AO2 PRESFR SLP215 T10171100 11017 21050 58038
KDKK 171653Z AUTO 19009KT 10SM CLR M02/M10 A3018 RMK AO2 SLP230 T10221100
KDKK 171553Z AUTO 19009KT 10SM CLR M02/M09 A3023 RMK AO2 SLP248 T10221089
KDKK 171453Z AUTO 19010KT 10SM CLR M03/M08 A3025 RMK AO2 SLP254 T10281083 58013
KDKK 171353Z AUTO 18010KT 10SM CLR M04/M09 A3027 RMK AO2 SLP260 T10391094
KDKK 171253Z AUTO 18013KT 10SM CLR M04/M10 A3028 RMK AO2 SLP266 T10441100
KDKK 171153Z AUTO 18010KT 10SM CLR M05/M10 A3029 RMK AO2 SLP267 T10501100 11050 21072 50001
KDKK 171053Z AUTO 18010KT 10SM CLR M05/M10 A3030 RMK AO2 SLP270 T10501100
KDKK 170953Z AUTO 17007KT 10SM CLR M06/M10 A3028 RMK AO2 SLP265 T10611100
KDKK 170853Z AUTO 18007KT 10SM CLR M07/M10 A3029 RMK AO2 SLP265 T10671100 50003
KDKK 170753Z AUTO 20008KT 10SM CLR M06/M09 A3031 RMK AO2 SLP272 T10561094